Time;durP1;ratioP1;P1;durP2;ratioP2;P2;SDS_P1;SDS_P2;PMS_P1;PMS_P2;Temp;Humidity;BMP_temperature;BMP_pressure;BME280_temperature;BME280_humidity;BME280_pressure;Samples;Min_cycle;Max_cycle;Signal;HPM_P1;HPM_P2
2023/10/13 00:01:44;;;;;;;3.75;2.30;;;;;;;22.60;47.38;100516.44;10216020;28;96685;-79
2023/10/13 00:06:49;;;;;;;3.60;2.57;;;;;;;22.49;47.67;100521.84;10214575;28;96870;-79
2023/10/13 00:11:55;;;;;;;4.00;2.78;;;;;;;22.63;47.50;100515.34;10214723;28;97270;-80
2023/10/13 00:17:04;;;;;;;4.20;2.25;;;;;;;22.54;47.91;100514.28;10213777;28;96969;-80
2023/10/13 00:22:10;;;;;;;3.40;2.35;;;;;;;22.43;47.98;100496.41;10214467;28;97356;-80
2023/10/13 00:27:33;;;;;;;4.90;2.42;;;;;;;22.38;47.99;100525.44;10214643;28;97418;-79
2023/10/13 00:32:39;;;;;;;4.78;2.78;;;;;;;22.46;47.77;100528.31;10214247;28;97086;-80
2023/10/13 00:37:44;;;;;;;3.95;2.60;;;;;;;22.46;48.44;100519.41;10213798;28;97414;-79
2023/10/13 00:42:50;;;;;;;4.38;2.13;;;;;;;22.36;49.06;100524.72;10213649;28;97365;-79
2023/10/13 00:47:58;;;;;;;4.05;2.22;;;;;;;22.40;49.27;100526.16;10214049;28;97077;-79
2023/10/13 00:53:03;;;;;;;3.92;2.30;;;;;;;22.30;49.00;100519.88;10214298;28;96939;-79
2023/10/13 00:58:07;;;;;;;3.53;2.40;;;;;;;22.51;48.46;100512.69;10213722;28;96800;-80
2023/10/13 01:03:12;;;;;;;3.92;2.50;;;;;;;22.56;48.06;100509.59;10213923;28;97217;-79
2023/10/13 01:08:19;;;;;;;4.15;2.67;;;;;;;22.49;47.99;100508.44;10210736;28;96983;-80
2023/10/13 01:13:23;;;;;;;4.65;2.63;;;;;;;22.20;49.11;100510.91;10212300;28;96847;-79
2023/10/13 01:18:28;;;;;;;5.22;2.60;;;;;;;22.25;48.97;100514.03;10213506;28;96844;-79
2023/10/13 01:23:38;;;;;;;4.60;2.90;;;;;;;22.20;49.20;100504.66;10212955;28;97240;-80
2023/10/13 01:28:46;;;;;;;4.68;2.88;;;;;;;22.30;49.25;100493.06;10212507;28;96633;-79
2023/10/13 01:33:53;;;;;;;4.63;2.75;;;;;;;22.21;49.68;100485.78;10211875;28;97224;-80
2023/10/13 01:39:01;;;;;;;5.00;2.85;;;;;;;22.10;50.16;100483.16;10212919;28;97005;-80
2023/10/13 01:44:04;;;;;;;5.45;2.75;;;;;;;21.98;50.46;100477.91;10212616;28;96820;-80
2023/10/13 01:49:08;;;;;;;5.67;3.10;;;;;;;21.96;50.19;100478.06;10212018;28;97254;-80
2023/10/13 01:54:21;;;;;;;3.83;2.67;;;;;;;22.03;49.97;100467.69;10212360;28;97008;-79
2023/10/13 01:59:26;;;;;;;4.43;2.43;;;;;;;22.11;49.60;100463.41;10210361;28;97819;-79
2023/10/13 02:04:36;;;;;;;5.85;3.03;;;;;;;22.04;49.97;100459.53;10211828;28;97159;-80
2023/10/13 02:09:42;;;;;;;5.07;3.00;;;;;;;22.14;49.47;100449.72;10211890;28;97370;-80
2023/10/13 02:14:48;;;;;;;5.13;2.83;;;;;;;21.96;49.93;100429.81;10210870;28;97134;-80
2023/10/13 02:19:54;;;;;;;4.43;2.47;;;;;;;21.97;50.00;100428.81;10211328;28;97304;-79
2023/10/13 02:25:01;;;;;;;3.90;2.25;;;;;;;21.96;50.23;100431.63;10218107;28;96632;-79
2023/10/13 02:30:12;;;;;;;4.78;2.90;;;;;;;21.98;50.20;100413.59;10218213;28;96961;-80
2023/10/13 02:35:17;;;;;;;3.30;2.60;;;;;;;21.87;50.80;100417.19;10218523;28;96702;-79
2023/10/13 02:40:23;;;;;;;4.53;2.97;;;;;;;21.97;50.43;100406.56;10217968;28;96976;-79
2023/10/13 02:45:26;;;;;;;3.85;2.42;;;;;;;21.95;50.52;100403.97;10218073;28;96773;-79
2023/10/13 02:50:32;;;;;;;4.45;2.58;;;;;;;21.87;50.95;100406.47;10216157;28;97219;-79
2023/10/13 02:55:38;;;;;;;4.63;2.88;;;;;;;21.77;51.40;100420.75;10216399;28;96976;-79
2023/10/13 03:00:44;;;;;;;4.75;2.53;;;;;;;21.95;51.04;100416.56;10217747;28;97125;-79
2023/10/13 03:05:47;;;;;;;3.97;2.67;;;;;;;21.70;51.81;100420.41;10216917;28;97075;-79
2023/10/13 03:10:54;;;;;;;4.75;2.60;;;;;;;21.72;52.01;100426.50;10216040;28;97096;-79
2023/10/13 03:15:57;;;;;;;5.40;2.47;;;;;;;21.79;51.71;100424.16;10216392;28;96760;-79
2023/10/13 03:21:02;;;;;;;4.82;3.03;;;;;;;21.86;51.53;100407.47;10216759;28;96748;-79
2023/10/13 03:26:12;;;;;;;4.78;2.78;;;;;;;21.92;51.11;100401.56;10217360;28;96749;-79
2023/10/13 03:31:18;;;;;;;5.18;2.80;;;;;;;21.73;51.49;100403.25;10215737;28;97502;-79
2023/10/13 03:36:56;;;;;;;5.85;2.55;;;;;;;21.67;52.19;100404.59;10216604;28;97331;-79
2023/10/13 03:41:53;;;;;;;4.53;2.40;;;;;;;21.74;52.06;100402.25;10214289;28;98425;-79
2023/10/13 03:47:17;;;;;;;3.72;2.90;;;;;;;21.68;51.80;100406.28;10215895;28;96840;-79
2023/10/13 03:52:22;;;;;;;4.05;2.55;;;;;;;21.49;52.56;100401.63;10225660;28;97386;-79
2023/10/13 03:57:27;;;;;;;4.00;2.72;;;;;;;21.60;52.69;100391.84;10256294;28;97294;-79
2023/10/13 04:02:31;;;;;;;3.13;2.65;;;;;;;21.24;53.30;100375.13;10255500;28;97119;-79
2023/10/13 04:08:44;;;;;;;4.00;2.63;;;;;;;21.30;51.28;100377.31;10240096;28;96766;-79
2023/10/13 04:19:03;;;;;;;4.40;2.78;;;;;;;21.34;49.31;100368.06;10175205;28;96863;-79
2023/10/13 04:24:23;;;;;;;2.92;2.13;;;;;;;21.39;49.51;100371.22;10174409;28;96807;-79
2023/10/13 04:29:45;;;;;;;3.33;2.15;;;;;;;21.37;49.97;100365.13;10210668;28;96801;-80
2023/10/13 04:34:51;;;;;;;3.20;2.22;;;;;;;21.50;49.40;100368.50;10213189;28;96931;-80
2023/10/13 04:39:59;;;;;;;6.25;2.60;;;;;;;21.50;49.80;100373.03;10213719;28;97041;-79
2023/10/13 04:45:16;;;;;;;4.28;2.55;;;;;;;21.38;50.44;100376.72;10213236;28;96740;-80
2023/10/13 04:50:27;;;;;;;3.28;2.53;;;;;;;21.39;50.79;100383.75;10213886;28;96788;-80
2023/10/13 04:55:59;;;;;;;4.00;2.65;;;;;;;21.36;51.29;100381.34;10213603;28;97191;-80
2023/10/13 05:01:49;;;;;;;4.47;2.90;;;;;;;21.40;51.97;100390.78;10229471;28;96658;-80
2023/10/13 05:44:37;;;;;;;2.45;2.17;;;;;;;21.41;50.08;100430.00;10211940;28;97222;-80
2023/10/13 05:49:50;;;;;;;3.30;2.42;;;;;;;21.28;51.17;100437.31;10212182;28;96700;-80
2023/10/13 06:32:40;;;;;;;3.72;2.55;;;;;;;21.16;52.64;100499.84;10218158;28;96744;-79
2023/10/13 06:37:45;;;;;;;4.63;2.40;;;;;;;21.12;53.08;100493.03;10217920;28;96921;-79
2023/10/13 06:42:50;;;;;;;3.50;2.50;;;;;;;21.19;52.96;100508.47;10217830;28;97055;-79
2023/10/13 06:47:58;;;;;;;4.18;2.60;;;;;;;21.24;53.00;100484.06;10217793;28;97408;-79
2023/10/13 06:53:04;;;;;;;5.38;2.70;;;;;;;21.11;53.65;100502.88;10217008;28;97114;-80
2023/10/13 06:58:13;;;;;;;3.53;2.50;;;;;;;21.15;53.51;100507.00;10218601;28;96855;-79
2023/10/13 07:03:18;;;;;;;4.07;2.95;;;;;;;21.13;54.03;100500.06;10257580;28;96867;-79
2023/10/13 07:08:23;;;;;;;4.82;3.10;;;;;;;21.16;53.75;100516.75;10235250;28;97341;-80
2023/10/13 07:13:28;;;;;;;4.35;2.83;;;;;;;20.98;54.32;100522.69;10215000;28;96914;-80
2023/10/13 07:18:36;;;;;;;4.40;3.17;;;;;;;21.05;54.27;100538.13;10217028;28;97349;-79
2023/10/13 07:23:43;;;;;;;4.20;3.20;;;;;;;21.08;54.47;100529.88;10216919;28;96862;-79
2023/10/13 07:28:46;;;;;;;4.72;2.65;;;;;;;21.16;54.25;100540.00;10216367;28;96670;-80
2023/10/13 07:33:50;;;;;;;4.53;2.95;;;;;;;21.14;53.87;100550.78;10216505;28;97349;-80
2023/10/13 07:39:20;;;;;;;3.88;2.72;;;;;;;21.18;54.19;100564.81;10215805;28;96708;-79
2023/10/13 07:44:40;;;;;;;4.90;2.95;;;;;;;21.12;54.74;100578.66;10275336;22;97567;-79
2023/10/13 07:49:45;;;;;;;4.60;3.15;;;;;;;21.13;55.10;100578.53;10287917;28;96884;-80
2023/10/13 07:54:59;;;;;;;4.10;2.80;;;;;;;21.23;55.05;100592.94;10337293;28;97555;-79
2023/10/13 08:00:10;;;;;;;6.53;2.95;;;;;;;21.36;54.87;100588.31;10330055;28;96679;-79
2023/10/13 08:05:18;;;;;;;5.00;3.10;;;;;;;21.37;55.10;100594.53;10294882;28;96930;-79
2023/10/13 08:10:29;;;;;;;4.82;3.10;;;;;;;21.36;55.12;100603.53;10332000;28;96685;-80
2023/10/13 08:15:34;;;;;;;4.05;3.08;;;;;;;21.46;55.31;100601.84;10336595;28;97213;-80
2023/10/13 08:20:41;;;;;;;5.38;2.90;;;;;;;21.47;55.68;100595.50;10335302;28;96941;-80
2023/10/13 08:31:22;;;;;;;4.90;3.00;;;;;;;21.47;56.50;100582.97;10302514;28;96876;-80
2023/10/13 08:36:29;;;;;;;5.65;3.60;;;;;;;21.52;56.75;100564.72;10329928;28;97087;-80
2023/10/13 08:41:53;;;;;;;6.32;4.03;;;;;;;21.51;57.30;100559.47;10302834;28;96791;-80
2023/10/13 08:47:06;;;;;;;;;;;;;;;21.44;58.39;100553.78;10295256;28;96787;-80
2023/10/13 08:57:34;;;;;;;7.03;3.60;;;;;;;21.67;56.71;100592.13;10296627;28;97435;-80
2023/10/13 09:03:28;;;;;;;7.45;4.45;;;;;;;21.60;57.71;100598.06;10335284;28;96634;-81
2023/10/13 09:44:32;;;;;;;19.02;10.52;;;;;;;21.04;60.23;100565.00;9860580;29;97290;-81
2023/10/13 09:49:57;;;;;;;18.52;10.90;;;;;;;20.59;63.03;100545.31;10164709;28;97697;-80
2023/10/13 09:55:18;;;;;;;20.17;10.77;;;;;;;20.65;62.08;100546.69;10340166;28;97033;-80
2023/10/13 10:07:19;;;;;;;30.70;16.98;;;;;;;20.73;61.78;100563.00;10332727;28;97769;-80
2023/10/13 10:19:31;;;;;;;;;;;;;;;;;;;;;
2023/10/13 10:30:52;;;;;;;39.28;23.85;;;;;;;21.64;60.36;100592.31;9896095;29;98005;-79
2023/10/13 10:36:01;;;;;;;29.38;18.25;;;;;;;22.07;59.97;100581.72;10070802;28;97346;-79
2023/10/13 10:41:13;;;;;;;29.65;15.88;;;;;;;22.60;58.37;100579.00;10149341;28;96844;-80
2023/10/13 10:46:28;;;;;;;31.08;17.08;;;;;;;23.73;56.86;100568.25;10338966;28;97231;-79
2023/10/13 10:51:34;;;;;;;33.22;20.42;;;;;;;24.95;54.73;100567.66;10338691;28;97409;-80
2023/10/13 10:56:40;;;;;;;31.70;18.88;;;;;;;24.22;56.27;100564.69;10338363;28;97288;-80
2023/10/13 11:01:50;;;;;;;29.92;17.38;;;;;;;24.07;56.40;100571.44;10338482;28;96906;-80
2023/10/13 11:07:07;;;;;;;32.97;18.77;;;;;;;23.78;56.77;100576.75;10338337;28;97017;-80
2023/10/13 11:18:47;;;;;;;;;;;;;;;24.54;55.21;100592.22;10101748;28;97382;-80
2023/10/13 11:24:02;;;;;;;32.63;18.80;;;;;;;25.67;53.23;100606.50;10245122;28;97276;-80
2023/10/13 11:29:54;;;;;;;;;;;;;;;;;;;;;
2023/10/13 11:41:55;;;;;;;28.13;16.30;;;;;;;28.79;47.10;100590.06;9780873;29;97662;-81
2023/10/13 11:53:07;;;;;;;;;;;;;;;;;;;;;
2023/10/13 11:58:34;;;;;;;31.52;18.00;;;;;;;30.17;45.41;100565.22;10020845;28;98609;-81
2023/10/13 12:09:12;;;;;;;37.57;22.00;;;;;;;29.33;46.42;100566.84;10253968;28;96796;-81
2023/10/13 12:14:29;;;;;;;;;;;;;;;;;;;;;
2023/10/13 12:20:07;;;;;;;;;;;;;;;;;;;;;
2023/10/13 12:25:44;;;;;;;24.63;13.43;;;;;;;30.98;42.06;100554.63;10243721;28;97077;-81
2023/10/13 12:30:57;;;;;;;20.67;11.77;;;;;;;29.72;43.28;100540.66;10213890;28;96763;-81
2023/10/13 12:36:31;;;;;;;19.35;11.98;;;;;;;28.85;44.63;100540.63;10120217;28;97171;-81
2023/10/13 12:52:48;;;;;;;22.88;12.52;;;;;;;27.93;46.24;100512.06;10253251;28;96897;-80
2023/10/13 12:58:00;;;;;;;16.95;10.32;;;;;;;27.92;45.79;100532.91;10299646;28;97044;-81
2023/10/13 13:03:11;;;;;;;21.67;11.87;;;;;;;27.44;46.61;100537.22;10335226;28;97027;-81
2023/10/13 13:08:22;;;;;;;16.88;9.80;;;;;;;27.25;47.03;100526.66;10334021;28;97308;-80
2023/10/13 13:13:31;;;;;;;14.60;8.82;;;;;;;26.88;47.85;100522.34;10334683;28;97295;-81
2023/10/13 13:18:37;;;;;;;17.98;10.23;;;;;;;26.71;48.15;100514.25;10335627;28;96840;-80
2023/10/13 13:36:04;;;;;;;17.15;8.52;;;;;;;27.69;47.47;100501.19;10110734;28;96930;-81
2023/10/13 13:41:29;;;;;;;;;;;;;;;;;;;;;
2023/10/13 13:46:40;;;;;;;13.60;8.10;;;;;;;27.11;48.99;100492.09;10297943;28;97354;-80
2023/10/13 13:51:51;;;;;;;13.27;7.20;;;;;;;26.67;49.40;100451.63;10333739;28;97129;-81
2023/10/13 13:56:57;;;;;;;17.05;7.78;;;;;;;26.38;50.06;100464.56;10334060;28;96746;-80
2023/10/13 14:02:19;;;;;;;13.02;7.43;;;;;;;26.35;50.25;100472.09;10333571;28;97603;-80
2023/10/13 14:08:40;;;;;;;;;;;;;;;;;;;;;
2023/10/13 14:14:47;;;;;;;;;;;;;;;;;;;;;
2023/10/13 14:20:39;;;;;;;;;;;;;;;;;;;;;
2023/10/13 14:26:19;;;;;;;10.10;6.45;;;;;;;25.56;52.18;100490.78;10224548;28;97633;-80
2023/10/13 14:32:16;;;;;;;;;;;;;;;;;;;;;
2023/10/13 14:37:40;;;;;;;10.30;5.90;;;;;;;25.45;52.57;100461.34;10079066;28;97068;-80
2023/10/13 14:42:44;;;;;;;14.10;6.83;;;;;;;25.33;53.02;100472.47;10237654;28;96955;-80
2023/10/13 14:47:53;;;;;;;12.95;6.28;;;;;;;25.49;52.67;100481.59;10258082;28;97678;-80
2023/10/13 14:52:57;;;;;;;10.13;5.80;;;;;;;25.49;51.84;100478.91;10257481;28;97394;-80
2023/10/13 14:58:04;;;;;;;10.02;6.10;;;;;;;25.27;52.50;100448.81;10308340;28;96860;-80
2023/10/13 15:03:11;;;;;;;9.43;6.15;;;;;;;25.19;53.48;100452.25;10297893;28;97355;-81
2023/10/13 15:08:18;;;;;;;10.93;5.68;;;;;;;25.22;52.34;100443.88;10298501;28;96702;-80
2023/10/13 15:13:25;;;;;;;11.75;6.45;;;;;;;25.38;51.34;100435.16;10317423;28;96734;-80
2023/10/13 15:18:30;;;;;;;9.55;5.45;;;;;;;25.60;50.10;100434.72;10333846;28;96657;-81
2023/10/13 15:23:42;;;;;;;8.50;4.72;;;;;;;25.55;49.13;100428.94;10296060;28;96759;-80
2023/10/13 15:28:49;;;;;;;9.30;5.47;;;;;;;25.39;49.04;100418.84;10302988;28;97128;-80
2023/10/13 15:33:56;;;;;;;8.52;5.20;;;;;;;25.48;48.42;100399.06;10338315;28;97552;-80
2023/10/13 15:39:01;;;;;;;8.68;4.28;;;;;;;25.68;48.01;100408.72;10311203;28;96938;-80
2023/10/13 15:44:09;;;;;;;8.45;5.07;;;;;;;25.73;48.72;100406.44;10296315;28;96766;-80
2023/10/13 15:49:14;;;;;;;6.80;4.60;;;;;;;25.67;48.21;100398.09;10332064;28;97324;-80
2023/10/13 15:54:20;;;;;;;11.90;6.50;;;;;;;25.49;48.42;100387.28;10337066;28;97424;-80
2023/10/13 15:59:24;;;;;;;14.10;8.40;;;;;;;25.42;48.41;100388.03;10337887;28;97454;-81
2023/10/13 16:04:28;;;;;;;20.03;10.67;;;;;;;25.33;48.80;100373.63;10337126;28;97541;-81
2023/10/13 16:09:33;;;;;;;18.50;9.98;;;;;;;25.49;48.57;100397.19;10336156;28;97253;-80
2023/10/13 16:14:40;;;;;;;14.95;8.68;;;;;;;25.66;48.87;100410.72;10335818;28;97343;-80
2023/10/13 16:19:55;;;;;;;13.23;7.97;;;;;;;25.59;49.48;100408.75;10309220;28;97134;-81
2023/10/13 16:25:11;;;;;;;12.48;7.25;;;;;;;25.39;50.28;100412.59;10336694;28;96631;-80
2023/10/13 16:30:23;;;;;;;8.25;5.65;;;;;;;25.19;51.56;100402.94;10336186;28;97183;-80
2023/10/13 16:35:33;;;;;;;6.15;4.45;;;;;;;25.02;52.29;100401.03;10335945;28;96808;-80
2023/10/13 16:40:39;;;;;;;8.07;5.40;;;;;;;24.91;53.13;100406.56;10332311;28;97316;-80
2023/10/13 16:45:48;;;;;;;11.63;7.35;;;;;;;24.97;53.03;100404.13;10336243;28;97019;-80
2023/10/13 16:51:00;;;;;;;9.95;5.93;;;;;;;24.83;53.45;100397.38;10336009;28;97295;-80
2023/10/13 16:56:03;;;;;;;7.90;5.05;;;;;;;24.76;53.38;100388.19;10335179;28;96612;-80
2023/10/13 17:01:10;;;;;;;7.67;5.40;;;;;;;24.64;53.44;100384.00;10335229;28;96730;-80
2023/10/13 17:06:15;;;;;;;10.25;5.78;;;;;;;24.56;54.47;100378.50;10334341;28;97237;-80
2023/10/13 17:11:20;;;;;;;10.27;6.55;;;;;;;24.48;54.45;100350.63;10334778;28;98317;-80
2023/10/13 17:16:24;;;;;;;12.93;7.90;;;;;;;24.46;54.17;100356.13;10311983;28;96773;-81
2023/10/13 17:21:30;;;;;;;12.05;6.75;;;;;;;24.41;54.74;100352.22;10293531;28;96831;-80
2023/10/13 17:26:34;;;;;;;11.35;7.30;;;;;;;24.44;53.75;100358.16;10293540;28;96804;-80
2023/10/13 17:31:37;;;;;;;11.07;6.90;;;;;;;24.40;53.26;100350.50;10331665;28;97388;-80
2023/10/13 17:36:42;;;;;;;12.20;7.47;;;;;;;24.11;54.68;100353.25;10326023;28;96818;-81
2023/10/13 17:41:46;;;;;;;10.88;6.80;;;;;;;23.89;55.45;100356.25;10293793;28;97353;-81
2023/10/13 17:46:52;;;;;;;13.95;7.80;;;;;;;23.87;55.24;100368.97;10317171;28;96826;-81
2023/10/13 17:51:58;;;;;;;15.45;8.70;;;;;;;23.82;54.97;100371.25;10336565;28;97343;-81
2023/10/13 17:57:06;;;;;;;21.40;9.15;;;;;;;23.89;54.02;100369.69;10335401;28;96710;-81
2023/10/13 18:02:16;;;;;;;13.40;7.38;;;;;;;23.87;53.83;100368.97;10310153;28;97047;-81
2023/10/13 18:07:25;;;;;;;13.68;6.22;;;;;;;23.92;52.96;100380.13;10341017;28;96637;-81
2023/10/13 18:12:31;;;;;;;13.32;7.40;;;;;;;23.94;52.72;100380.84;10332309;28;97366;-81
2023/10/13 18:17:39;;;;;;;14.93;7.60;;;;;;;23.72;53.84;100356.09;10299330;28;96675;-81
2023/10/13 18:22:46;;;;;;;14.18;8.00;;;;;;;23.68;53.80;100342.91;10338553;28;97019;-81
2023/10/13 18:27:49;;;;;;;16.77;8.35;;;;;;;23.73;53.23;100341.66;10340124;28;97298;-81
2023/10/13 18:33:27;;;;;;;;;;;;;;;;;;;;;
2023/10/13 18:38:45;;;;;;;;;;;;;;;;;;;;;
2023/10/13 19:07:19;;;;;;;9.70;6.00;;;;;;;23.89;51.65;100360.75;10297326;28;97192;-81
2023/10/13 19:12:54;;;;;;;;;;;;;;;;;;;;;
2023/10/13 19:18:34;;;;;;;;;;;;;;;;;;;;;
2023/10/13 19:23:50;;;;;;;7.57;3.70;;;;;;;24.22;50.90;100345.00;10295451;28;96899;-80
2023/10/13 19:35:22;;;;;;;;;;;;;;;;;;;;;
2023/10/13 19:40:58;;;;;;;7.00;4.05;;;;;;;24.10;51.18;100358.75;10337940;28;96943;-80
2023/10/13 19:46:32;;;;;;;6.28;3.72;;;;;;;24.07;50.99;100356.34;10319040;28;96665;-80
2023/10/13 19:51:43;;;;;;;5.53;3.85;;;;;;;24.06;51.07;100363.56;10313292;28;97370;-78
2023/10/13 19:56:46;;;;;;;4.97;3.65;;;;;;;24.18;50.92;100357.06;10288748;28;98403;-76
2023/10/13 20:01:50;;;;;;;7.78;4.07;;;;;;;24.19;51.00;100356.03;10292766;28;98854;-76
2023/10/13 20:06:55;;;;;;;5.57;3.13;;;;;;;24.14;51.23;100376.28;10294835;28;98529;-73
2023/10/13 20:12:00;;;;;;;6.15;3.20;;;;;;;24.06;51.04;100374.34;10290751;22;97810;-74
2023/10/13 20:17:05;;;;;;;6.07;4.40;;;;;;;23.90;51.54;100383.94;10250438;28;97799;-74
2023/10/13 20:22:10;;;;;;;6.05;3.60;;;;;;;23.99;51.05;100393.84;10259742;28;98879;-74
2023/10/13 20:27:13;;;;;;;6.25;3.85;;;;;;;23.95;51.18;100382.53;10254788;28;97593;-74
2023/10/13 20:32:17;;;;;;;5.60;3.80;;;;;;;23.96;50.95;100383.41;10257230;28;96869;-73
2023/10/13 20:37:21;;;;;;;5.03;3.37;;;;;;;23.95;50.73;100395.97;10271211;28;97063;-73
2023/10/13 20:42:25;;;;;;;3.53;2.55;;;;;;;23.85;51.11;100402.34;10282643;28;97095;-73
2023/10/13 20:47:28;;;;;;;4.38;2.63;;;;;;;23.94;50.37;100401.50;10253424;28;96962;-73
2023/10/13 20:52:32;;;;;;;5.07;3.10;;;;;;;23.94;50.34;100404.19;10262358;28;97033;-72
2023/10/13 20:57:37;;;;;;;4.20;2.60;;;;;;;23.94;50.21;100406.88;10254394;28;97987;-73
2023/10/13 21:02:42;;;;;;;4.80;3.03;;;;;;;23.90;50.34;100403.63;10280087;28;97048;-73
2023/10/13 21:07:48;;;;;;;4.75;3.20;;;;;;;23.75;51.40;100390.75;10279601;28;96929;-73
2023/10/13 21:12:51;;;;;;;6.35;2.85;;;;;;;23.73;51.29;100396.25;10257368;28;96824;-73
2023/10/13 21:17:55;;;;;;;4.72;2.70;;;;;;;23.76;50.74;100395.97;10262805;28;97687;-73
2023/10/13 21:23:01;;;;;;;5.40;3.07;;;;;;;23.79;50.80;100408.28;10262356;28;96827;-73
2023/10/13 21:28:04;;;;;;;4.57;3.42;;;;;;;23.76;50.93;100390.59;10262100;28;97103;-73
2023/10/13 21:33:08;;;;;;;4.10;2.80;;;;;;;23.77;50.86;100367.28;10276632;28;96638;-72
2023/10/13 21:38:14;;;;;;;5.47;2.83;;;;;;;23.84;50.45;100382.66;10260480;28;96859;-73
2023/10/13 21:43:17;;;;;;;5.00;2.40;;;;;;;23.86;50.09;100391.44;10282881;28;96836;-73
2023/10/13 21:48:21;;;;;;;4.70;2.55;;;;;;;23.91;49.76;100399.94;10255054;28;96904;-73
2023/10/13 21:53:25;;;;;;;3.28;2.38;;;;;;;23.83;50.05;100424.00;10255257;28;99301;-73
2023/10/13 21:58:28;;;;;;;4.78;2.58;;;;;;;23.82;50.47;100421.44;10255881;28;96739;-73
2023/10/13 22:03:34;;;;;;;3.95;2.58;;;;;;;23.88;50.04;100447.75;10258712;28;96792;-73
2023/10/13 22:08:39;;;;;;;6.28;2.50;;;;;;;23.82;50.87;100477.88;10235892;28;98601;-72
2023/10/13 22:13:47;;;;;;;5.40;2.92;;;;;;;23.19;55.57;100495.19;10277554;28;98439;-71
2023/10/13 23:47:58;;;;;;;6.65;4.55;;;;;;;21.33;75.48;100615.34;10260700;28;96916;-73
2023/10/13 23:53:03;;;;;;;6.90;4.38;;;;;;;21.41;74.60;100630.81;10247972;28;97182;-73
2023/10/13 23:58:07;;;;;;;7.00;4.65;;;;;;;21.48;73.90;100640.91;10249290;28;96860;-73
